Silver Bay, MN

8:34 PM CST on December 20, 2014 (GMT -0600)
Silver Bay Municipal | Change Station
CLOSE
Current Station
Airport
Location: Silver Bay,
Elevation: 1086 ft
Nearby Weather Stations
Active Advisory: Winter Storm Watch

Elev 1086 ft 47.25 °N, 91.42 °W | Updated 20 minutes ago

Overcast
Overcast
32 °F
Feels Like 25 °F
N
8
Wind Variable Wind from South

Today
High -- | Low -- °F
--% Chance of Precip.
Yesterday
High -- | Low -- °F
Precip. -- in
7:48 AM 4:16 PM
Waning Crescent, 1% visible
Pressure 30.05 in
Visibility 7.0 miles
Clouds Overcast 1300 ft
Windchill 25 °F
Dew Point 28 °F
Humidity 87%
Rainfall 0.05 in
Snow Depth Not available.
UV 0 out of 12
Pollen .10 out of 12
Air Quality Not available.
Flu Activity Not available.
METAR KBFW 210214Z AUTO 17007KT 7SM OVC013 00/M02 A3005 RMK AO2

More Conditions Fewer Conditions

Pressure 30.05 in
Visibility 7.0 miles
Clouds Overcast 1300 ft
Windchill 25 °F
Dew Point 28 °F
Humidity 87%
Rainfall 0.05 in
Snow Depth Not available.
UV 0 out of 12
Pollen .10 out of 12
Air Quality Not available.
Flu Activity Not available.
METAR KBFW 210214Z AUTO 17007KT 7SM OVC013 00/M02 A3005 RMK AO2

More Conditions Fewer Conditions

10-Day Weather Forecast

Almanac

Astronomy

Dec. 20, 2014 Rise Set
Actual Time
Civil Twilight
Nautical Twilight
Astronomical Twilight
Moon
Length of Visible Light
Length of Day
Tomorrow will be .
, % of the Moon is Illuminated

Today's Extremes

State Highs State Lows

Community

WunderPhotos

Upload Photos

1,779,348 photos uploaded!

WunderBlogs® & News

Nearby

Air Quality

  Air Quality AQ Index Pollutant
Not available.

Snow Depth

Station Depth Elevation

Earthquake Activity

City Distance Mag. Time & Date
Minimum magnitude displayed is 2.5.

Coastal Water Temperatures

Place Temperature

Nearby Weather Stations